sensor_id;sensor_type;location;lat;lon;timestamp;P1;durP1;ratioP1;P2;durP2;ratioP2
42018;SDS011;27703;51.980;5.848;2022-10-23T00:01:45;6.13;;;1.30;;
42018;SDS011;27703;51.980;5.848;2022-10-23T00:04:12;6.47;;;1.85;;
42018;SDS011;27703;51.980;5.848;2022-10-23T00:06:39;4.03;;;1.05;;
42018;SDS011;27703;51.980;5.848;2022-10-23T00:09:06;3.63;;;1.30;;
42018;SDS011;27703;51.980;5.848;2022-10-23T00:11:33;3.00;;;1.45;;
42018;SDS011;27703;51.980;5.848;2022-10-23T00:14:00;3.35;;;1.00;;
42018;SDS011;27703;51.980;5.848;2022-10-23T00:16:27;3.22;;;1.13;;
42018;SDS011;27703;51.980;5.848;2022-10-23T00:18:53;5.38;;;1.40;;
42018;SDS011;27703;51.980;5.848;2022-10-23T00:21:18;5.97;;;1.70;;
42018;SDS011;27703;51.980;5.848;2022-10-23T00:23:44;4.32;;;1.27;;
42018;SDS011;27703;51.980;5.848;2022-10-23T00:26:10;3.75;;;1.15;;
42018;SDS011;27703;51.980;5.848;2022-10-23T00:28:43;3.83;;;1.42;;
42018;SDS011;27703;51.980;5.848;2022-10-23T00:31:11;3.22;;;1.10;;
42018;SDS011;27703;51.980;5.848;2022-10-23T00:33:37;6.43;;;1.38;;
42018;SDS011;27703;51.980;5.848;2022-10-23T00:36:04;5.13;;;1.63;;
42018;SDS011;27703;51.980;5.848;2022-10-23T00:38:30;2.63;;;1.20;;
42018;SDS011;27703;51.980;5.848;2022-10-23T00:40:56;4.80;;;1.60;;
42018;SDS011;27703;51.980;5.848;2022-10-23T00:43:23;7.72;;;2.00;;
42018;SDS011;27703;51.980;5.848;2022-10-23T00:45:51;3.03;;;1.55;;
42018;SDS011;27703;51.980;5.848;2022-10-23T00:48:17;5.68;;;1.77;;
42018;SDS011;27703;51.980;5.848;2022-10-23T00:50:42;5.28;;;1.92;;
42018;SDS011;27703;51.980;5.848;2022-10-23T00:53:10;2.38;;;1.00;;
42018;SDS011;27703;51.980;5.848;2022-10-23T00:55:37;2.97;;;1.15;;
42018;SDS011;27703;51.980;5.848;2022-10-23T00:58:10;5.65;;;1.67;;
42018;SDS011;27703;51.980;5.848;2022-10-23T01:00:45;6.80;;;2.38;;
42018;SDS011;27703;51.980;5.848;2022-10-23T01:03:14;2.92;;;1.35;;
42018;SDS011;27703;51.980;5.848;2022-10-23T01:05:53;3.13;;;1.35;;
42018;SDS011;27703;51.980;5.848;2022-10-23T01:25:36;6.30;;;2.00;;
42018;SDS011;27703;51.980;5.848;2022-10-23T01:28:13;3.33;;;1.38;;
42018;SDS011;27703;51.980;5.848;2022-10-23T01:33:09;6.72;;;2.25;;
42018;SDS011;27703;51.980;5.848;2022-10-23T01:38:12;4.88;;;1.35;;
42018;SDS011;27703;51.980;5.848;2022-10-23T01:41:04;4.57;;;0.90;;
42018;SDS011;27703;51.980;5.848;2022-10-23T01:43:55;4.18;;;1.35;;
42018;SDS011;27703;51.980;5.848;2022-10-23T01:46:27;2.70;;;1.52;;
42018;SDS011;27703;51.980;5.848;2022-10-23T01:48:54;5.60;;;1.38;;
42018;SDS011;27703;51.980;5.848;2022-10-23T01:51:21;4.63;;;1.67;;
42018;SDS011;27703;51.980;5.848;2022-10-23T01:53:52;3.95;;;1.48;;
42018;SDS011;27703;51.980;5.848;2022-10-23T01:56:24;4.07;;;1.05;;
42018;SDS011;27703;51.980;5.848;2022-10-23T01:58:56;5.53;;;1.17;;
42018;SDS011;27703;51.980;5.848;2022-10-23T02:01:27;3.50;;;1.13;;
42018;SDS011;27703;51.980;5.848;2022-10-23T02:03:54;4.72;;;1.50;;
42018;SDS011;27703;51.980;5.848;2022-10-23T02:06:21;6.90;;;1.23;;
42018;SDS011;27703;51.980;5.848;2022-10-23T02:08:47;2.85;;;1.20;;
42018;SDS011;27703;51.980;5.848;2022-10-23T02:11:14;4.18;;;2.15;;
42018;SDS011;27703;51.980;5.848;2022-10-23T02:13:55;7.78;;;1.73;;
42018;SDS011;27703;51.980;5.848;2022-10-23T02:21:44;3.85;;;1.70;;
42018;SDS011;27703;51.980;5.848;2022-10-23T02:24:22;5.18;;;2.15;;
42018;SDS011;27703;51.980;5.848;2022-10-23T02:27:00;5.93;;;1.80;;
42018;SDS011;27703;51.980;5.848;2022-10-23T02:29:32;4.43;;;1.85;;
42018;SDS011;27703;51.980;5.848;2022-10-23T02:32:02;2.40;;;1.60;;
42018;SDS011;27703;51.980;5.848;2022-10-23T02:34:30;3.70;;;2.33;;
42018;SDS011;27703;51.980;5.848;2022-10-23T02:36:56;5.28;;;2.30;;
42018;SDS011;27703;51.980;5.848;2022-10-23T02:39:22;5.38;;;2.53;;
42018;SDS011;27703;51.980;5.848;2022-10-23T02:41:55;4.55;;;2.30;;
42018;SDS011;27703;51.980;5.848;2022-10-23T02:49:47;5.70;;;2.30;;
42018;SDS011;27703;51.980;5.848;2022-10-23T02:57:45;3.35;;;1.70;;
42018;SDS011;27703;51.980;5.848;2022-10-23T03:00:19;4.47;;;2.03;;
42018;SDS011;27703;51.980;5.848;2022-10-23T03:05:18;2.70;;;1.70;;
42018;SDS011;27703;51.980;5.848;2022-10-23T03:07:46;7.13;;;2.70;;
42018;SDS011;27703;51.980;5.848;2022-10-23T03:10:13;8.52;;;2.45;;
42018;SDS011;27703;51.980;5.848;2022-10-23T03:12:38;7.18;;;2.50;;
42018;SDS011;27703;51.980;5.848;2022-10-23T03:15:05;5.30;;;2.72;;
42018;SDS011;27703;51.980;5.848;2022-10-23T03:17:31;3.97;;;1.67;;
42018;SDS011;27703;51.980;5.848;2022-10-23T03:19:57;4.82;;;1.90;;
42018;SDS011;27703;51.980;5.848;2022-10-23T03:22:22;6.20;;;2.00;;
42018;SDS011;27703;51.980;5.848;2022-10-23T03:24:48;4.35;;;1.98;;
42018;SDS011;27703;51.980;5.848;2022-10-23T03:27:14;4.47;;;2.10;;
42018;SDS011;27703;51.980;5.848;2022-10-23T03:29:40;5.60;;;2.28;;
42018;SDS011;27703;51.980;5.848;2022-10-23T03:32:06;6.15;;;2.15;;
42018;SDS011;27703;51.980;5.848;2022-10-23T03:34:31;4.97;;;2.45;;
42018;SDS011;27703;51.980;5.848;2022-10-23T03:36:57;4.75;;;2.28;;
42018;SDS011;27703;51.980;5.848;2022-10-23T03:39:22;3.55;;;2.10;;
42018;SDS011;27703;51.980;5.848;2022-10-23T03:41:48;4.82;;;1.65;;
42018;SDS011;27703;51.980;5.848;2022-10-23T03:44:13;5.15;;;1.85;;
42018;SDS011;27703;51.980;5.848;2022-10-23T03:46:39;7.47;;;2.42;;
42018;SDS011;27703;51.980;5.848;2022-10-23T03:49:05;8.10;;;2.88;;
42018;SDS011;27703;51.980;5.848;2022-10-23T03:51:30;9.52;;;3.17;;
42018;SDS011;27703;51.980;5.848;2022-10-23T03:53:56;5.07;;;2.47;;
42018;SDS011;27703;51.980;5.848;2022-10-23T03:56:21;5.32;;;2.90;;
42018;SDS011;27703;51.980;5.848;2022-10-23T03:58:47;5.75;;;2.63;;
42018;SDS011;27703;51.980;5.848;2022-10-23T04:01:13;4.95;;;2.03;;
42018;SDS011;27703;51.980;5.848;2022-10-23T04:03:39;3.85;;;1.95;;
42018;SDS011;27703;51.980;5.848;2022-10-23T04:06:04;4.22;;;2.10;;
42018;SDS011;27703;51.980;5.848;2022-10-23T04:08:30;2.90;;;1.88;;
42018;SDS011;27703;51.980;5.848;2022-10-23T04:10:56;4.38;;;2.25;;
42018;SDS011;27703;51.980;5.848;2022-10-23T04:13:21;3.35;;;1.88;;
42018;SDS011;27703;51.980;5.848;2022-10-23T04:15:47;6.60;;;2.53;;
42018;SDS011;27703;51.980;5.848;2022-10-23T04:18:14;7.70;;;2.92;;
42018;SDS011;27703;51.980;5.848;2022-10-23T04:20:39;3.80;;;2.03;;
42018;SDS011;27703;51.980;5.848;2022-10-23T04:23:05;3.55;;;1.77;;
42018;SDS011;27703;51.980;5.848;2022-10-23T04:25:30;8.00;;;2.30;;
42018;SDS011;27703;51.980;5.848;2022-10-23T04:27:56;4.15;;;1.92;;
42018;SDS011;27703;51.980;5.848;2022-10-23T04:30:21;4.75;;;1.60;;
42018;SDS011;27703;51.980;5.848;2022-10-23T04:32:50;6.72;;;2.40;;
42018;SDS011;27703;51.980;5.848;2022-10-23T04:35:17;3.83;;;1.25;;
42018;SDS011;27703;51.980;5.848;2022-10-23T04:37:43;6.30;;;1.85;;
42018;SDS011;27703;51.980;5.848;2022-10-23T04:40:09;1.40;;;0.82;;
42018;SDS011;27703;51.980;5.848;2022-10-23T04:42:35;3.70;;;1.50;;
42018;SDS011;27703;51.980;5.848;2022-10-23T04:45:00;4.72;;;2.03;;
42018;SDS011;27703;51.980;5.848;2022-10-23T04:47:26;2.85;;;1.38;;
42018;SDS011;27703;51.980;5.848;2022-10-23T04:49:51;4.38;;;1.95;;
42018;SDS011;27703;51.980;5.848;2022-10-23T04:52:17;4.35;;;1.83;;
42018;SDS011;27703;51.980;5.848;2022-10-23T04:54:42;6.70;;;1.77;;
42018;SDS011;27703;51.980;5.848;2022-10-23T04:57:08;4.57;;;1.48;;
42018;SDS011;27703;51.980;5.848;2022-10-23T04:59:33;3.72;;;1.65;;
42018;SDS011;27703;51.980;5.848;2022-10-23T05:01:59;5.47;;;2.35;;
42018;SDS011;27703;51.980;5.848;2022-10-23T05:04:24;4.00;;;1.63;;
42018;SDS011;27703;51.980;5.848;2022-10-23T05:06:50;4.75;;;1.42;;
42018;SDS011;27703;51.980;5.848;2022-10-23T05:09:15;4.90;;;1.85;;
42018;SDS011;27703;51.980;5.848;2022-10-23T05:11:41;6.22;;;1.50;;
42018;SDS011;27703;51.980;5.848;2022-10-23T05:14:06;4.10;;;1.48;;
42018;SDS011;27703;51.980;5.848;2022-10-23T05:16:42;3.28;;;1.55;;
42018;SDS011;27703;51.980;5.848;2022-10-23T05:19:13;8.35;;;2.13;;
42018;SDS011;27703;51.980;5.848;2022-10-23T05:21:45;6.85;;;1.88;;
42018;SDS011;27703;51.980;5.848;2022-10-23T05:24:12;3.83;;;2.25;;
42018;SDS011;27703;51.980;5.848;2022-10-23T05:26:38;5.07;;;2.35;;
42018;SDS011;27703;51.980;5.848;2022-10-23T05:29:03;5.80;;;3.03;;
42018;SDS011;27703;51.980;5.848;2022-10-23T05:31:29;5.82;;;2.35;;
42018;SDS011;27703;51.980;5.848;2022-10-23T05:33:55;4.60;;;2.35;;
42018;SDS011;27703;51.980;5.848;2022-10-23T05:36:21;5.03;;;2.58;;
42018;SDS011;27703;51.980;5.848;2022-10-23T05:38:48;8.48;;;2.25;;
42018;SDS011;27703;51.980;5.848;2022-10-23T05:41:13;4.03;;;2.33;;
42018;SDS011;27703;51.980;5.848;2022-10-23T05:43:39;6.43;;;3.38;;
42018;SDS011;27703;51.980;5.848;2022-10-23T05:46:05;8.52;;;1.83;;
42018;SDS011;27703;51.980;5.848;2022-10-23T05:48:31;4.20;;;1.90;;
42018;SDS011;27703;51.980;5.848;2022-10-23T05:51:04;2.95;;;1.88;;
42018;SDS011;27703;51.980;5.848;2022-10-23T05:53:34;4.03;;;1.52;;
42018;SDS011;27703;51.980;5.848;2022-10-23T05:56:03;2.90;;;1.50;;
42018;SDS011;27703;51.980;5.848;2022-10-23T05:58:30;7.23;;;2.30;;
42018;SDS011;27703;51.980;5.848;2022-10-23T06:00:55;3.88;;;1.58;;
42018;SDS011;27703;51.980;5.848;2022-10-23T06:03:21;3.10;;;1.65;;
42018;SDS011;27703;51.980;5.848;2022-10-23T06:05:49;7.78;;;2.42;;
42018;SDS011;27703;51.980;5.848;2022-10-23T06:08:15;4.68;;;2.50;;
42018;SDS011;27703;51.980;5.848;2022-10-23T06:10:42;5.18;;;1.77;;
42018;SDS011;27703;51.980;5.848;2022-10-23T06:13:07;7.10;;;2.55;;
42018;SDS011;27703;51.980;5.848;2022-10-23T06:15:33;3.78;;;1.90;;
42018;SDS011;27703;51.980;5.848;2022-10-23T06:18:01;5.30;;;2.38;;
42018;SDS011;27703;51.980;5.848;2022-10-23T06:20:28;5.30;;;2.53;;
42018;SDS011;27703;51.980;5.848;2022-10-23T06:22:53;3.80;;;2.03;;
42018;SDS011;27703;51.980;5.848;2022-10-23T06:25:19;4.85;;;1.80;;
42018;SDS011;27703;51.980;5.848;2022-10-23T06:27:45;5.60;;;1.98;;
42018;SDS011;27703;51.980;5.848;2022-10-23T06:30:10;2.60;;;1.25;;
42018;SDS011;27703;51.980;5.848;2022-10-23T06:32:36;5.20;;;1.77;;
42018;SDS011;27703;51.980;5.848;2022-10-23T06:35:02;5.57;;;1.35;;
42018;SDS011;27703;51.980;5.848;2022-10-23T06:37:28;5.15;;;1.58;;
42018;SDS011;27703;51.980;5.848;2022-10-23T06:39:53;2.80;;;1.77;;
42018;SDS011;27703;51.980;5.848;2022-10-23T06:42:19;6.85;;;1.65;;
42018;SDS011;27703;51.980;5.848;2022-10-23T06:44:44;5.90;;;1.70;;
42018;SDS011;27703;51.980;5.848;2022-10-23T06:47:10;5.47;;;2.00;;
42018;SDS011;27703;51.980;5.848;2022-10-23T06:49:38;8.20;;;1.88;;
42018;SDS011;27703;51.980;5.848;2022-10-23T06:52:03;5.70;;;2.38;;
42018;SDS011;27703;51.980;5.848;2022-10-23T06:54:29;8.15;;;2.67;;
42018;SDS011;27703;51.980;5.848;2022-10-23T06:56:54;4.50;;;2.58;;
42018;SDS011;27703;51.980;5.848;2022-10-23T06:59:20;8.10;;;2.35;;
42018;SDS011;27703;51.980;5.848;2022-10-23T07:01:45;5.88;;;2.40;;
42018;SDS011;27703;51.980;5.848;2022-10-23T07:04:11;2.85;;;1.25;;
42018;SDS011;27703;51.980;5.848;2022-10-23T07:06:38;5.07;;;2.15;;
42018;SDS011;27703;51.980;5.848;2022-10-23T07:09:04;3.75;;;2.00;;
42018;SDS011;27703;51.980;5.848;2022-10-23T07:11:29;4.57;;;1.58;;
42018;SDS011;27703;51.980;5.848;2022-10-23T07:13:55;2.75;;;1.65;;
42018;SDS011;27703;51.980;5.848;2022-10-23T07:16:21;3.83;;;1.55;;
42018;SDS011;27703;51.980;5.848;2022-10-23T07:18:48;4.70;;;1.48;;
42018;SDS011;27703;51.980;5.848;2022-10-23T07:21:17;6.45;;;2.20;;
42018;SDS011;27703;51.980;5.848;2022-10-23T07:23:43;6.38;;;1.88;;
42018;SDS011;27703;51.980;5.848;2022-10-23T07:26:10;7.93;;;1.98;;
42018;SDS011;27703;51.980;5.848;2022-10-23T07:28:41;6.25;;;1.15;;
42018;SDS011;27703;51.980;5.848;2022-10-23T07:31:08;5.22;;;1.70;;
42018;SDS011;27703;51.980;5.848;2022-10-23T07:33:34;4.53;;;1.38;;
42018;SDS011;27703;51.980;5.848;2022-10-23T07:36:02;4.03;;;1.70;;
42018;SDS011;27703;51.980;5.848;2022-10-23T07:38:29;3.97;;;1.70;;
42018;SDS011;27703;51.980;5.848;2022-10-23T07:40:58;3.95;;;1.27;;
42018;SDS011;27703;51.980;5.848;2022-10-23T07:43:24;2.78;;;1.42;;
42018;SDS011;27703;51.980;5.848;2022-10-23T07:45:50;5.75;;;2.20;;
42018;SDS011;27703;51.980;5.848;2022-10-23T07:48:16;4.10;;;1.25;;
42018;SDS011;27703;51.980;5.848;2022-10-23T07:50:42;3.90;;;1.60;;
42018;SDS011;27703;51.980;5.848;2022-10-23T07:53:11;6.38;;;1.40;;
42018;SDS011;27703;51.980;5.848;2022-10-23T07:56:00;3.92;;;1.45;;
42018;SDS011;27703;51.980;5.848;2022-10-23T07:58:27;4.45;;;1.50;;
42018;SDS011;27703;51.980;5.848;2022-10-23T08:00:57;3.40;;;1.77;;
42018;SDS011;27703;51.980;5.848;2022-10-23T08:03:25;4.20;;;1.90;;
42018;SDS011;27703;51.980;5.848;2022-10-23T08:05:52;8.68;;;1.35;;
42018;SDS011;27703;51.980;5.848;2022-10-23T08:08:18;4.47;;;2.00;;
42018;SDS011;27703;51.980;5.848;2022-10-23T08:10:45;5.55;;;2.30;;
42018;SDS011;27703;51.980;5.848;2022-10-23T08:13:11;7.13;;;1.27;;
42018;SDS011;27703;51.980;5.848;2022-10-23T08:15:38;4.60;;;1.30;;
42018;SDS011;27703;51.980;5.848;2022-10-23T08:18:04;6.88;;;1.95;;
42018;SDS011;27703;51.980;5.848;2022-10-23T08:20:29;4.90;;;1.63;;
42018;SDS011;27703;51.980;5.848;2022-10-23T08:22:55;5.32;;;1.30;;
42018;SDS011;27703;51.980;5.848;2022-10-23T08:25:21;4.60;;;1.73;;
42018;SDS011;27703;51.980;5.848;2022-10-23T08:27:46;4.70;;;1.65;;
42018;SDS011;27703;51.980;5.848;2022-10-23T08:30:12;4.75;;;1.73;;
42018;SDS011;27703;51.980;5.848;2022-10-23T08:32:37;4.53;;;1.77;;
42018;SDS011;27703;51.980;5.848;2022-10-23T08:35:03;5.03;;;1.80;;
42018;SDS011;27703;51.980;5.848;2022-10-23T08:37:29;5.93;;;1.92;;
42018;SDS011;27703;51.980;5.848;2022-10-23T08:39:54;4.00;;;1.45;;
42018;SDS011;27703;51.980;5.848;2022-10-23T08:42:24;4.65;;;2.10;;
42018;SDS011;27703;51.980;5.848;2022-10-23T08:47:37;3.65;;;1.10;;
42018;SDS011;27703;51.980;5.848;2022-10-23T08:50:13;2.35;;;1.17;;
42018;SDS011;27703;51.980;5.848;2022-10-23T08:52:55;3.13;;;1.27;;
42018;SDS011;27703;51.980;5.848;2022-10-23T08:57:57;3.63;;;1.30;;
42018;SDS011;27703;51.980;5.848;2022-10-23T09:00:27;3.67;;;1.30;;
42018;SDS011;27703;51.980;5.848;2022-10-23T09:02:54;4.43;;;1.25;;
42018;SDS011;27703;51.980;5.848;2022-10-23T09:11:15;5.93;;;1.52;;
42018;SDS011;27703;51.980;5.848;2022-10-23T09:19:14;2.33;;;1.10;;
42018;SDS011;27703;51.980;5.848;2022-10-23T09:21:43;6.05;;;1.60;;
42018;SDS011;27703;51.980;5.848;2022-10-23T09:24:15;3.90;;;1.60;;
42018;SDS011;27703;51.980;5.848;2022-10-23T09:29:22;6.00;;;1.13;;
42018;SDS011;27703;51.980;5.848;2022-10-23T09:31:51;5.25;;;1.50;;
42018;SDS011;27703;51.980;5.848;2022-10-23T09:34:20;4.97;;;1.77;;
42018;SDS011;27703;51.980;5.848;2022-10-23T09:37:00;4.70;;;1.10;;
42018;SDS011;27703;51.980;5.848;2022-10-23T09:39:29;4.65;;;1.35;;
42018;SDS011;27703;51.980;5.848;2022-10-23T09:41:57;5.35;;;1.77;;
42018;SDS011;27703;51.980;5.848;2022-10-23T09:49:32;3.90;;;1.35;;
42018;SDS011;27703;51.980;5.848;2022-10-23T09:54:36;4.43;;;1.08;;
42018;SDS011;27703;51.980;5.848;2022-10-23T09:57:23;4.57;;;1.23;;
42018;SDS011;27703;51.980;5.848;2022-10-23T09:59:52;3.55;;;1.08;;
42018;SDS011;27703;51.980;5.848;2022-10-23T10:02:34;3.78;;;1.42;;
42018;SDS011;27703;51.980;5.848;2022-10-23T10:05:20;2.50;;;1.05;;
42018;SDS011;27703;51.980;5.848;2022-10-23T10:10:28;5.13;;;1.10;;
42018;SDS011;27703;51.980;5.848;2022-10-23T10:13:02;3.35;;;1.25;;
42018;SDS011;27703;51.980;5.848;2022-10-23T10:18:39;4.00;;;1.00;;
42018;SDS011;27703;51.980;5.848;2022-10-23T10:21:26;4.20;;;0.90;;
42018;SDS011;27703;51.980;5.848;2022-10-23T10:23:58;4.43;;;1.17;;
42018;SDS011;27703;51.980;5.848;2022-10-23T10:27:02;6.82;;;1.10;;
42018;SDS011;27703;51.980;5.848;2022-10-23T10:29:42;4.28;;;1.00;;
42018;SDS011;27703;51.980;5.848;2022-10-23T10:32:19;8.85;;;1.30;;
42018;SDS011;27703;51.980;5.848;2022-10-23T10:34:55;3.83;;;1.13;;
42018;SDS011;27703;51.980;5.848;2022-10-23T10:37:48;2.78;;;1.13;;
42018;SDS011;27703;51.980;5.848;2022-10-23T10:43:27;3.03;;;1.23;;
42018;SDS011;27703;51.980;5.848;2022-10-23T10:45:59;3.20;;;1.20;;
42018;SDS011;27703;51.980;5.848;2022-10-23T10:51:14;9.13;;;1.27;;
42018;SDS011;27703;51.980;5.848;2022-10-23T10:53:51;5.78;;;1.55;;
42018;SDS011;27703;51.980;5.848;2022-10-23T10:56:40;3.63;;;1.17;;
42018;SDS011;27703;51.980;5.848;2022-10-23T11:04:30;5.35;;;1.10;;
42018;SDS011;27703;51.980;5.848;2022-10-23T11:07:04;3.53;;;1.17;;
42018;SDS011;27703;51.980;5.848;2022-10-23T11:11:57;6.00;;;1.10;;
42018;SDS011;27703;51.980;5.848;2022-10-23T11:14:28;3.70;;;0.98;;
42018;SDS011;27703;51.980;5.848;2022-10-23T11:28:29;4.43;;;1.00;;
42018;SDS011;27703;51.980;5.848;2022-10-23T11:31:06;3.85;;;0.98;;
42018;SDS011;27703;51.980;5.848;2022-10-23T11:33:47;5.72;;;0.95;;
42018;SDS011;27703;51.980;5.848;2022-10-23T11:39:33;4.80;;;1.00;;
42018;SDS011;27703;51.980;5.848;2022-10-23T11:44:44;2.78;;;0.70;;
42018;SDS011;27703;51.980;5.848;2022-10-23T11:47:26;5.28;;;0.80;;
42018;SDS011;27703;51.980;5.848;2022-10-23T11:52:30;5.63;;;1.10;;
42018;SDS011;27703;51.980;5.848;2022-10-23T11:55:11;6.07;;;0.85;;
42018;SDS011;27703;51.980;5.848;2022-10-23T11:57:45;3.05;;;0.90;;
42018;SDS011;27703;51.980;5.848;2022-10-23T12:00:57;6.10;;;1.15;;
42018;SDS011;27703;51.980;5.848;2022-10-23T12:03:31;3.00;;;0.90;;
42018;SDS011;27703;51.980;5.848;2022-10-23T12:06:04;2.63;;;0.70;;
42018;SDS011;27703;51.980;5.848;2022-10-23T12:08:32;2.75;;;0.60;;
42018;SDS011;27703;51.980;5.848;2022-10-23T12:11:01;5.85;;;1.13;;
42018;SDS011;27703;51.980;5.848;2022-10-23T12:15:58;5.13;;;1.35;;
42018;SDS011;27703;51.980;5.848;2022-10-23T12:18:23;5.80;;;0.90;;
42018;SDS011;27703;51.980;5.848;2022-10-23T12:20:59;2.95;;;0.70;;
42018;SDS011;27703;51.980;5.848;2022-10-23T12:23:30;6.47;;;0.80;;
42018;SDS011;27703;51.980;5.848;2022-10-23T12:28:34;2.30;;;0.73;;
42018;SDS011;27703;51.980;5.848;2022-10-23T12:36:43;2.92;;;0.60;;
42018;SDS011;27703;51.980;5.848;2022-10-23T12:39:25;4.93;;;1.00;;
42018;SDS011;27703;51.980;5.848;2022-10-23T12:42:00;3.13;;;0.70;;
42018;SDS011;27703;51.980;5.848;2022-10-23T12:44:26;2.47;;;0.82;;
42018;SDS011;27703;51.980;5.848;2022-10-23T12:46:53;2.60;;;0.80;;
42018;SDS011;27703;51.980;5.848;2022-10-23T12:49:22;2.47;;;1.08;;
42018;SDS011;27703;51.980;5.848;2022-10-23T12:51:57;3.65;;;0.80;;
42018;SDS011;27703;51.980;5.848;2022-10-23T12:54:31;4.00;;;0.88;;
42018;SDS011;27703;51.980;5.848;2022-10-23T12:57:11;3.30;;;1.13;;
42018;SDS011;27703;51.980;5.848;2022-10-23T12:59:43;2.70;;;0.80;;
42018;SDS011;27703;51.980;5.848;2022-10-23T13:04:45;3.55;;;0.70;;
42018;SDS011;27703;51.980;5.848;2022-10-23T13:07:13;2.47;;;0.70;;
42018;SDS011;27703;51.980;5.848;2022-10-23T13:09:43;4.85;;;1.35;;
42018;SDS011;27703;51.980;5.848;2022-10-23T13:12:23;4.03;;;1.05;;
42018;SDS011;27703;51.980;5.848;2022-10-23T13:17:31;5.45;;;0.95;;
42018;SDS011;27703;51.980;5.848;2022-10-23T13:20:30;1.98;;;0.75;;
42018;SDS011;27703;51.980;5.848;2022-10-23T13:25:36;2.22;;;0.70;;
42018;SDS011;27703;51.980;5.848;2022-10-23T13:30:32;3.63;;;0.60;;
42018;SDS011;27703;51.980;5.848;2022-10-23T13:33:21;3.13;;;0.60;;
42018;SDS011;27703;51.980;5.848;2022-10-23T13:38:33;3.75;;;0.52;;
42018;SDS011;27703;51.980;5.848;2022-10-23T13:41:00;2.28;;;0.60;;
42018;SDS011;27703;51.980;5.848;2022-10-23T13:43:27;2.85;;;0.55;;
42018;SDS011;27703;51.980;5.848;2022-10-23T13:45:55;2.40;;;0.50;;
42018;SDS011;27703;51.980;5.848;2022-10-23T13:48:24;3.45;;;0.65;;
42018;SDS011;27703;51.980;5.848;2022-10-23T13:50:50;3.83;;;0.40;;
42018;SDS011;27703;51.980;5.848;2022-10-23T13:53:16;1.50;;;0.40;;
42018;SDS011;27703;51.980;5.848;2022-10-23T13:55:42;6.15;;;0.65;;
42018;SDS011;27703;51.980;5.848;2022-10-23T13:58:09;2.35;;;0.60;;
42018;SDS011;27703;51.980;5.848;2022-10-23T14:00:36;2.65;;;0.40;;
42018;SDS011;27703;51.980;5.848;2022-10-23T14:03:03;1.63;;;0.40;;
42018;SDS011;27703;51.980;5.848;2022-10-23T14:05:28;2.67;;;0.43;;
42018;SDS011;27703;51.980;5.848;2022-10-23T14:07:54;1.67;;;0.40;;
42018;SDS011;27703;51.980;5.848;2022-10-23T14:10:20;0.85;;;0.30;;
42018;SDS011;27703;51.980;5.848;2022-10-23T14:12:46;3.97;;;0.50;;
42018;SDS011;27703;51.980;5.848;2022-10-23T14:15:17;1.17;;;0.40;;
42018;SDS011;27703;51.980;5.848;2022-10-23T14:17:43;1.45;;;0.40;;
42018;SDS011;27703;51.980;5.848;2022-10-23T14:20:09;3.15;;;0.50;;
42018;SDS011;27703;51.980;5.848;2022-10-23T14:22:35;1.38;;;0.40;;
42018;SDS011;27703;51.980;5.848;2022-10-23T14:25:00;4.53;;;0.40;;
42018;SDS011;27703;51.980;5.848;2022-10-23T14:27:26;1.67;;;0.50;;
42018;SDS011;27703;51.980;5.848;2022-10-23T14:29:53;1.80;;;0.50;;
42018;SDS011;27703;51.980;5.848;2022-10-23T14:32:19;2.55;;;0.35;;
42018;SDS011;27703;51.980;5.848;2022-10-23T14:34:47;2.50;;;0.40;;
42018;SDS011;27703;51.980;5.848;2022-10-23T14:37:15;1.15;;;0.50;;
42018;SDS011;27703;51.980;5.848;2022-10-23T14:39:42;2.38;;;0.40;;
42018;SDS011;27703;51.980;5.848;2022-10-23T14:42:07;1.42;;;0.40;;
42018;SDS011;27703;51.980;5.848;2022-10-23T14:44:33;4.63;;;0.40;;
42018;SDS011;27703;51.980;5.848;2022-10-23T14:46:59;3.85;;;0.40;;
42018;SDS011;27703;51.980;5.848;2022-10-23T14:49:24;1.48;;;0.30;;
42018;SDS011;27703;51.980;5.848;2022-10-23T14:51:50;2.80;;;0.60;;
42018;SDS011;27703;51.980;5.848;2022-10-23T14:54:15;1.42;;;0.30;;
42018;SDS011;27703;51.980;5.848;2022-10-23T14:56:41;1.25;;;0.55;;
42018;SDS011;27703;51.980;5.848;2022-10-23T14:59:07;2.15;;;0.40;;
42018;SDS011;27703;51.980;5.848;2022-10-23T15:01:36;1.33;;;0.30;;
42018;SDS011;27703;51.980;5.848;2022-10-23T15:04:04;3.05;;;0.40;;
42018;SDS011;27703;51.980;5.848;2022-10-23T15:06:31;2.00;;;0.38;;
42018;SDS011;27703;51.980;5.848;2022-10-23T15:08:58;3.13;;;0.50;;
42018;SDS011;27703;51.980;5.848;2022-10-23T15:11:23;0.85;;;0.20;;
42018;SDS011;27703;51.980;5.848;2022-10-23T15:13:50;1.20;;;0.30;;
42018;SDS011;27703;51.980;5.848;2022-10-23T15:16:18;2.30;;;0.70;;
42018;SDS011;27703;51.980;5.848;2022-10-23T15:18:44;3.33;;;0.32;;
42018;SDS011;27703;51.980;5.848;2022-10-23T15:21:12;2.63;;;0.47;;
42018;SDS011;27703;51.980;5.848;2022-10-23T15:23:39;1.92;;;0.40;;
42018;SDS011;27703;51.980;5.848;2022-10-23T15:26:08;2.53;;;0.55;;
42018;SDS011;27703;51.980;5.848;2022-10-23T15:28:36;2.35;;;0.50;;
42018;SDS011;27703;51.980;5.848;2022-10-23T15:31:01;1.65;;;0.47;;
42018;SDS011;27703;51.980;5.848;2022-10-23T15:33:27;1.77;;;0.40;;
42018;SDS011;27703;51.980;5.848;2022-10-23T15:35:53;0.95;;;0.40;;
42018;SDS011;27703;51.980;5.848;2022-10-23T15:38:19;0.93;;;0.30;;
42018;SDS011;27703;51.980;5.848;2022-10-23T15:40:46;1.58;;;0.40;;
42018;SDS011;27703;51.980;5.848;2022-10-23T15:43:12;1.23;;;0.40;;
42018;SDS011;27703;51.980;5.848;2022-10-23T15:45:38;2.40;;;0.50;;
42018;SDS011;27703;51.980;5.848;2022-10-23T15:48:04;2.50;;;0.63;;
42018;SDS011;27703;51.980;5.848;2022-10-23T15:50:30;1.33;;;0.40;;
42018;SDS011;27703;51.980;5.848;2022-10-23T15:52:56;2.33;;;0.55;;
42018;SDS011;27703;51.980;5.848;2022-10-23T15:55:22;2.03;;;0.90;;
42018;SDS011;27703;51.980;5.848;2022-10-23T15:57:48;2.58;;;1.17;;
42018;SDS011;27703;51.980;5.848;2022-10-23T16:00:13;2.67;;;1.02;;
42018;SDS011;27703;51.980;5.848;2022-10-23T16:02:39;3.72;;;1.27;;
42018;SDS011;27703;51.980;5.848;2022-10-23T16:05:06;6.05;;;0.98;;
42018;SDS011;27703;51.980;5.848;2022-10-23T16:07:31;2.60;;;0.95;;
42018;SDS011;27703;51.980;5.848;2022-10-23T16:09:57;3.42;;;0.55;;
42018;SDS011;27703;51.980;5.848;2022-10-23T16:12:22;2.45;;;0.88;;
42018;SDS011;27703;51.980;5.848;2022-10-23T16:14:48;2.53;;;0.70;;
42018;SDS011;27703;51.980;5.848;2022-10-23T16:17:14;1.20;;;0.50;;
42018;SDS011;27703;51.980;5.848;2022-10-23T16:19:39;5.05;;;0.63;;
42018;SDS011;27703;51.980;5.848;2022-10-23T16:22:05;4.15;;;0.75;;
42018;SDS011;27703;51.980;5.848;2022-10-23T16:24:32;1.85;;;0.70;;
42018;SDS011;27703;51.980;5.848;2022-10-23T16:26:58;2.42;;;0.63;;
42018;SDS011;27703;51.980;5.848;2022-10-23T16:29:24;4.22;;;0.65;;
42018;SDS011;27703;51.980;5.848;2022-10-23T16:31:51;3.08;;;0.60;;
42018;SDS011;27703;51.980;5.848;2022-10-23T16:34:18;1.77;;;0.43;;
42018;SDS011;27703;51.980;5.848;2022-10-23T16:36:43;3.13;;;0.73;;
42018;SDS011;27703;51.980;5.848;2022-10-23T16:39:10;1.13;;;0.40;;
42018;SDS011;27703;51.980;5.848;2022-10-23T16:41:37;4.05;;;0.40;;
42018;SDS011;27703;51.980;5.848;2022-10-23T16:44:03;2.53;;;0.50;;
42018;SDS011;27703;51.980;5.848;2022-10-23T16:46:29;1.23;;;0.40;;
42018;SDS011;27703;51.980;5.848;2022-10-23T16:48:54;2.58;;;0.50;;
42018;SDS011;27703;51.980;5.848;2022-10-23T16:51:21;1.70;;;0.45;;
42018;SDS011;27703;51.980;5.848;2022-10-23T16:53:48;3.33;;;0.50;;
42018;SDS011;27703;51.980;5.848;2022-10-23T16:56:15;1.50;;;0.40;;
42018;SDS011;27703;51.980;5.848;2022-10-23T16:58:43;1.10;;;0.40;;
42018;SDS011;27703;51.980;5.848;2022-10-23T17:01:13;1.63;;;0.40;;
42018;SDS011;27703;51.980;5.848;2022-10-23T17:03:42;2.25;;;0.40;;
42018;SDS011;27703;51.980;5.848;2022-10-23T17:06:09;1.23;;;0.40;;
42018;SDS011;27703;51.980;5.848;2022-10-23T17:08:36;1.73;;;0.50;;